Time;durP1;ratioP1;P1;durP2;ratioP2;P2;SDS_P1;SDS_P2;PMS_P1;PMS_P2;Temp;Humidity;BMP_temperature;BMP_pressure;BME280_temperature;BME280_humidity;BME280_pressure;Samples;Min_cycle;Max_cycle;Signal;HPM_P1;HPM_P2
2021/01/09 04:21:22;;;;;;;23.13;12.27;;;;;;;;;;5022496;28;20045;-82
2021/01/09 04:36:52;;;;;;;26.95;12.13;;;0.70;99.90;;;;;;5040209;28;20050;-82
2021/01/09 04:49:15;;;;;;;24.97;11.37;;;;;;;;;;5295079;23;20057;-83
2021/01/09 04:51:42;;;;;;;25.10;11.18;;;0.50;99.90;;;;;;5022936;28;20056;-82
2021/01/09 05:01:16;;;;;;;18.73;10.27;;;0.50;99.90;;;;;;4999360;28;20057;-83
2021/01/09 05:20:32;;;;;;;16.53;8.87;;;;;;;;;;5295414;23;20137;-82
2021/01/09 05:22:59;;;;;;;16.98;9.00;;;0.40;99.90;;;;;;4983577;28;20224;-82
2021/01/09 05:35:20;;;;;;;15.85;8.00;;;;;;;;;;5253445;23;20058;-82
2021/01/09 05:41:45;;;;;;;17.70;8.18;;;0.50;99.90;;;;;;4979905;28;20050;-82
2021/01/09 06:04:43;;;;;;;14.93;7.15;;;0.60;99.90;;;;;;4995960;28;20496;-83
2021/01/09 06:07:14;;;;;;;13.63;7.38;;;0.60;99.90;;;;;;4997999;28;20050;-82
2021/01/09 06:09:46;;;;;;;17.27;7.57;;;0.50;99.90;;;;;;4996459;28;20046;-82
2021/01/09 06:12:13;;;;;;;15.00;7.30;;;0.70;99.90;;;;;;4961120;28;20153;-82
2021/01/09 06:14:43;;;;;;;12.32;6.80;;;0.80;99.90;;;;;;4960560;28;20050;-82
2021/01/09 06:17:10;;;;;;;;;;;-1.60;99.90;;;;;;4978076;28;20046;-82
2021/01/09 06:19:37;;;;;;;12.93;6.80;;;0.90;99.90;;;;;;4979580;28;19922;-83
2021/01/09 06:22:04;;;;;;;15.00;7.63;;;;;;;;;;4980403;28;20072;-82
2021/01/09 06:24:31;;;;;;;16.25;8.40;;;0.90;99.90;;;;;;4979967;28;20054;-82
2021/01/09 06:26:57;;;;;;;13.25;7.28;;;;;;;;;;4979061;28;20133;-82
2021/01/09 06:29:25;;;;;;;16.20;7.45;;;0.90;99.90;;;;;;4978263;28;20042;-82
2021/01/09 06:31:52;;;;;;;15.43;6.90;;;1.00;99.90;;;;;;4968681;28;20047;-82
2021/01/09 06:34:19;;;;;;;12.43;6.43;;;1.00;99.90;;;;;;4958915;28;20074;-82
2021/01/09 06:36:49;;;;;;;13.43;6.78;;;1.00;99.90;;;;;;4958471;28;20043;-82
2021/01/09 06:39:16;;;;;;;15.48;6.78;;;;;;;;;;4958402;28;20089;-82
2021/01/09 06:41:43;;;;;;;13.53;6.37;;;;;;;;;;4958618;28;20050;-82
2021/01/09 06:44:09;;;;;;;13.70;6.67;;;;;;;;;;4975952;28;20097;-82
2021/01/09 06:46:36;;;;;;;14.82;6.93;;;1.20;99.90;;;;;;4965670;28;20049;-83
2021/01/09 06:49:02;;;;;;;12.23;6.77;;;1.30;99.90;;;;;;4978441;28;20041;-82
2021/01/09 06:51:42;;;;;;;13.13;7.05;;;1.30;99.90;;;;;;4978313;28;20050;-82
2021/01/09 06:54:45;;;;;;;12.73;6.10;;;1.30;99.90;;;;;;4977962;28;20412;-82
2021/01/09 06:57:13;;;;;;;15.60;6.55;;;1.30;99.90;;;;;;4978053;28;20042;-82
2021/01/09 06:59:40;;;;;;;12.65;6.60;;;;;;;;;;4978074;28;20069;-82
2021/01/09 07:02:10;;;;;;;12.95;6.63;;;1.30;99.90;;;;;;4977665;28;20057;-82
2021/01/09 07:04:50;;;;;;;15.45;6.40;;;1.30;99.90;;;;;;4978653;28;20042;-82
2021/01/09 07:07:30;;;;;;;11.60;6.00;;;1.30;99.90;;;;;;4977533;28;20069;-82
2021/01/09 07:10:17;;;;;;;14.15;6.47;;;1.20;99.90;;;;;;4978014;28;20042;-83
2021/01/09 07:12:49;;;;;;;12.23;6.20;;;1.00;99.90;;;;;;4977728;28;20499;-82
2021/01/09 07:15:16;;;;;;;12.20;6.63;;;1.00;99.90;;;;;;4977846;28;20057;-83
2021/01/09 07:17:49;;;;;;;11.90;6.05;;;1.10;99.90;;;;;;4978739;28;20053;-82
2021/01/09 07:20:18;;;;;;;14.50;7.00;;;1.10;99.90;;;;;;4977634;28;20043;-82
2021/01/09 07:22:46;;;;;;;13.27;6.07;;;1.00;99.90;;;;;;4977764;28;20042;-82
2021/01/09 07:25:13;;;;;;;15.55;6.68;;;;;;;;;;4977217;28;20133;-82
2021/01/09 07:27:41;;;;;;;14.35;6.55;;;-2.20;99.90;;;;;;4978351;28;20117;-82
2021/01/09 07:30:14;;;;;;;12.93;6.38;;;0.90;99.90;;;;;;4978002;28;20092;-82
2021/01/09 07:32:46;;;;;;;13.88;7.50;;;0.90;99.90;;;;;;4982036;28;20130;-82
2021/01/09 07:35:12;;;;;;;13.73;7.07;;;;;;;;;;4982992;28;20044;-82
2021/01/09 07:37:39;;;;;;;16.02;7.45;;;;;;;;;;4999897;28;20050;-82
2021/01/09 07:40:13;;;;;;;12.43;7.10;;;1.20;99.90;;;;;;4982389;28;20042;-83
2021/01/09 07:42:39;;;;;;;14.70;7.57;;;;;;;;;;4983035;28;20051;-83
2021/01/09 07:45:07;;;;;;;13.43;7.28;;;1.00;99.90;;;;;;5000160;28;20125;-83
2021/01/09 07:47:38;;;;;;;15.40;7.43;;;1.00;99.90;;;;;;4968162;28;20047;-82
2021/01/09 07:50:14;;;;;;;15.68;7.80;;;1.00;99.90;;;;;;4980060;28;20046;-82
2021/01/09 07:52:41;;;;;;;17.42;7.88;;;;;;;;;;4961271;28;20042;-81
2021/01/09 07:55:12;;;;;;;15.80;8.10;;;0.90;99.90;;;;;;4961913;28;20070;-82
2021/01/09 07:57:40;;;;;;;16.98;8.27;;;1.00;99.90;;;;;;4960469;28;20051;-83
2021/01/09 08:00:15;;;;;;;16.17;7.87;;;1.00;99.90;;;;;;4973139;28;20096;-83
2021/01/09 08:02:46;;;;;;;15.90;8.15;;;0.90;99.90;;;;;;5001160;28;20070;-82
2021/01/09 08:05:15;;;;;;;17.63;8.50;;;0.90;99.90;;;;;;4981653;28;20038;-82
2021/01/09 08:08:02;;;;;;;15.30;7.05;;;0.80;99.90;;;;;;4995367;28;20085;-83
2021/01/09 08:10:34;;;;;;;15.60;7.53;;;1.00;99.90;;;;;;4958540;28;20073;-82
2021/01/09 08:13:07;;;;;;;19.60;8.93;;;1.00;99.90;;;;;;4995376;28;20447;-82
2021/01/09 08:15:34;;;;;;;18.02;8.32;;;1.00;99.90;;;;;;4981303;28;20050;-82
2021/01/09 08:18:06;;;;;;;16.80;7.45;;;0.90;99.90;;;;;;5004192;28;20049;-83
2021/01/09 08:20:33;;;;;;;14.05;7.57;;;3.90;99.90;;;;;;4999653;28;20042;-81
2021/01/09 08:23:03;;;;;;;18.60;8.48;;;1.20;99.90;;;;;;4981345;28;20046;-82
2021/01/09 08:25:30;;;;;;;15.63;7.25;;;1.20;99.90;;;;;;4981745;28;20045;-81
2021/01/09 08:28:01;;;;;;;14.98;7.68;;;1.20;99.90;;;;;;4998722;28;20045;-81
2021/01/09 08:30:31;;;;;;;14.45;6.88;;;;;;;;;;4964837;28;20127;-82
2021/01/09 08:33:16;;;;;;;21.92;8.35;;;1.20;99.90;;;;;;4998280;28;20065;-82
2021/01/09 08:35:49;;;;;;;16.40;7.60;;;1.10;99.90;;;;;;4991024;28;20102;-82
2021/01/09 08:38:18;;;;;;;14.40;7.18;;;1.10;99.90;;;;;;4981482;28;20065;-82
2021/01/09 08:40:47;;;;;;;16.13;7.72;;;;;;;;;;4982348;28;20559;-82
2021/01/09 08:43:18;;;;;;;16.92;7.40;;;1.10;99.90;;;;;;4997558;28;20042;-81
2021/01/09 08:46:16;;;;;;;16.05;7.22;;;1.20;99.90;;;;;;4996649;28;20108;-81
2021/01/09 08:49:11;;;;;;;16.50;8.00;;;1.20;99.90;;;;;;4961505;28;20045;-82
2021/01/09 08:51:37;;;;;;;18.33;8.48;;;;;;;;;;4961939;28;20059;-82
2021/01/09 08:54:12;;;;;;;17.57;7.80;;;1.10;99.90;;;;;;4961570;28;20047;-82
2021/01/09 08:56:49;;;;;;;16.73;7.40;;;1.10;99.90;;;;;;4961528;28;20109;-82
2021/01/09 08:59:18;;;;;;;15.73;8.18;;;1.20;99.90;;;;;;4972366;28;20042;-83
2021/01/09 09:01:59;;;;;;;15.57;7.35;;;1.20;99.90;;;;;;4997585;28;20042;-82
2021/01/09 09:04:36;;;;;;;15.43;7.45;;;1.30;99.90;;;;;;4980742;28;20054;-81
2021/01/09 09:07:33;;;;;;;16.60;7.70;;;1.40;99.90;;;;;;4997531;28;20046;-82
2021/01/09 09:10:07;;;;;;;21.60;8.45;;;1.30;99.90;;;;;;4979829;28;20061;-83
2021/01/09 09:12:50;;;;;;;14.80;7.45;;;1.30;99.90;;;;;;4997095;28;20129;-82
2021/01/09 09:16:00;;;;;;;20.60;8.00;;;1.30;99.90;;;;;;4952074;28;20050;-83
2021/01/09 09:18:42;;;;;;;13.93;7.65;;;;;;;;;;4995979;28;20096;-83
2021/01/09 09:21:56;;;;;;;15.37;7.27;;;1.30;99.90;;;;;;4992887;28;20066;-83
2021/01/09 09:25:11;;;;;;;15.57;7.47;;;1.30;99.90;;;;;;4982373;28;20046;-82
2021/01/09 10:58:28;;;;;;;7.28;3.70;;;8.00;99.90;;;;;;4973808;28;20062;-85
2021/01/09 11:00:54;;;;;;;7.53;4.50;;;8.00;99.90;;;;;;4959893;28;20039;-85
2021/01/09 11:06:42;;;;;;;6.30;3.45;;;;;;;;;;4984375;28;20037;-86
2021/01/09 11:09:08;;;;;;;6.72;3.20;;;;;;;;;;4955840;28;20050;-86
2021/01/09 20:35:56;;;;;;;50.38;19.90;;;1.20;99.90;;;;;;4957229;29;20058;-83
2021/01/09 20:38:47;;;;;;;40.33;17.13;;;1.30;99.90;;;;;;4920575;29;20047;-84
2021/01/09 20:41:52;;;;;;;51.17;18.65;;;1.30;99.90;;;;;;4950164;29;20056;-83
2021/01/09 20:44:43;;;;;;;48.83;18.50;;;1.30;99.90;;;;;;4920005;29;20039;-82
2021/01/09 20:47:46;;;;;;;38.38;17.13;;;1.80;99.90;;;;;;4950777;29;20059;-83
2021/01/09 20:51:25;;;;;;;27.40;12.27;;;1.30;99.90;;;;;;4950431;29;20059;-83
2021/01/09 20:54:47;;;;;;;26.23;12.35;;;1.30;99.90;;;;;;4949092;29;20048;-82
2021/01/09 20:57:47;;;;;;;25.63;11.23;;;1.30;99.90;;;;;;4931743;29;20115;-83
2021/01/09 21:00:55;;;;;;;29.42;11.80;;;1.40;99.90;;;;;;4876132;29;20057;-82
2021/01/09 21:03:28;;;;;;;26.45;12.15;;;1.30;99.90;;;;;;4872874;29;20064;-82
2021/01/09 21:06:03;;;;;;;28.33;12.32;;;;;;;;;;4895375;29;20044;-82
2021/01/09 21:08:33;;;;;;;30.77;11.23;;;1.30;99.90;;;;;;4948439;29;20048;-82
2021/01/09 21:11:05;;;;;;;23.83;10.88;;;1.30;99.90;;;;;;4946940;29;20070;-82
2021/01/09 21:13:36;;;;;;;22.43;11.00;;;1.20;99.90;;;;;;4947104;29;20071;-83
2021/01/09 21:16:03;;;;;;;22.37;10.90;;;1.90;99.90;;;;;;4947990;29;20050;-82
2021/01/09 21:18:31;;;;;;;23.35;10.40;;;1.20;99.90;;;;;;4945493;29;20061;-82
2021/01/09 21:21:04;;;;;;;22.83;10.48;;;1.00;99.90;;;;;;4948089;29;20040;-82
2021/01/09 21:23:38;;;;;;;22.83;9.60;;;4.60;99.90;;;;;;4930343;29;20106;-82
2021/01/09 21:26:27;;;;;;;22.05;10.10;;;1.10;99.90;;;;;;4944230;29;20043;-82
2021/01/09 21:28:56;;;;;;;26.98;10.25;;;;;;;;;;4929019;29;20051;-82
2021/01/09 21:31:26;;;;;;;23.03;10.73;;;1.30;99.90;;;;;;4945952;29;20035;-82
2021/01/09 21:34:07;;;;;;;30.70;12.30;;;1.10;99.90;;;;;;4943480;29;20066;-82
2021/01/09 21:36:34;;;;;;;25.77;11.63;;;;;;;;;;4929968;29;20046;-82
2021/01/09 21:39:00;;;;;;;24.27;11.60;;;;;;;;;;4945543;29;20062;-82
2021/01/09 21:41:31;;;;;;;26.97;10.90;;;0.90;99.90;;;;;;4946966;29;20056;-82
2021/01/09 21:44:03;;;;;;;22.40;11.32;;;0.90;99.90;;;;;;4936745;29;20054;-82
2021/01/09 21:46:39;;;;;;;23.60;10.90;;;1.00;99.90;;;;;;4938367;29;20040;-83
2021/01/09 21:49:08;;;;;;;24.23;11.27;;;1.10;99.90;;;;;;4923325;29;20249;-82
2021/01/09 21:51:34;;;;;;;26.33;11.77;;;;;;;;;;4908406;29;20048;-82
2021/01/09 21:54:00;;;;;;;25.73;10.80;;;;;;;;;;4921710;29;20137;-81
2021/01/09 21:56:26;;;;;;;27.80;11.75;;;;;;;;;;4924343;29;20135;-82
2021/01/09 21:58:55;;;;;;;26.25;12.18;;;1.30;99.90;;;;;;4924925;29;20067;-82
2021/01/09 22:01:21;;;;;;;24.95;11.43;;;;;;;;;;4915405;29;20054;-82
2021/01/09 22:03:47;;;;;;;25.20;12.07;;;;;;;;;;4943046;29;20557;-82
2021/01/09 22:06:16;;;;;;;26.27;11.48;;;1.20;99.90;;;;;;4942161;29;20079;-82
2021/01/09 22:09:02;;;;;;;24.70;11.25;;;1.20;99.90;;;;;;4940709;29;20051;-83
2021/01/09 22:11:35;;;;;;;26.70;11.43;;;1.20;99.90;;;;;;4942924;29;20444;-82
2021/01/09 22:14:07;;;;;;;24.08;11.32;;;1.30;99.90;;;;;;4942597;29;20117;-82
2021/01/09 22:16:34;;;;;;;23.92;10.48;;;;;;;;;;4941392;29;20047;-82
2021/01/09 22:19:03;;;;;;;26.10;11.90;;;;;;;;;;4939327;29;20051;-82
2021/01/09 22:21:34;;;;;;;30.65;12.88;;;1.40;99.90;;;;;;4940731;29;20158;-82
2021/01/09 22:24:05;;;;;;;25.60;12.32;;;4.00;99.90;;;;;;4938684;29;20051;-81
2021/01/09 22:26:31;;;;;;;29.75;13.50;;;1.60;99.90;;;;;;4925652;29;20051;-81
2021/01/09 22:29:00;;;;;;;29.63;12.50;;;1.60;99.90;;;;;;4939791;29;20450;-82
2021/01/09 22:31:44;;;;;;;25.48;12.27;;;1.70;99.90;;;;;;4940095;29;20453;-81
2021/01/09 22:34:22;;;;;;;27.90;11.95;;;1.70;99.90;;;;;;4921578;29;20070;-82
2021/01/09 22:37:05;;;;;;;27.75;12.40;;;1.60;99.90;;;;;;4941707;29;20079;-83
2021/01/09 22:39:38;;;;;;;26.95;12.35;;;;;;;;;;4937359;29;20052;-82
2021/01/09 22:42:05;;;;;;;26.05;12.00;;;;;;;;;;4938065;29;20054;-81
2021/01/09 22:44:36;;;;;;;25.50;11.95;;;1.40;99.90;;;;;;4936500;29;20043;-82
2021/01/09 22:47:06;;;;;;;24.75;11.98;;;1.40;99.90;;;;;;4938146;29;20040;-82
2021/01/09 22:49:34;;;;;;;26.85;11.95;;;1.50;99.90;;;;;;4938480;29;20036;-82
2021/01/09 22:52:02;;;;;;;24.25;12.32;;;;;;;;;;4936800;29;20051;-82
2021/01/09 22:54:28;;;;;;;26.17;12.07;;;;;;;;;;4937318;29;20379;-82
2021/01/09 22:56:58;;;;;;;27.38;11.25;;;1.40;99.90;;;;;;4920704;29;20058;-81
2021/01/09 22:59:28;;;;;;;27.60;11.50;;;;;;;;;;4938289;29;20098;-82
2021/01/09 23:01:56;;;;;;;31.58;12.07;;;1.50;99.90;;;;;;4936159;29;20265;-82
2021/01/09 23:04:23;;;;;;;31.37;11.80;;;;;;;;;;4937957;29;20322;-83
2021/01/09 23:06:49;;;;;;;29.65;11.98;;;;;;;;;;4938803;29;20047;-81
2021/01/09 23:09:17;;;;;;;37.78;14.55;;;1.20;99.90;;;;;;4937910;29;20058;-82
2021/01/09 23:11:43;;;;;;;35.83;13.48;;;;;;;;;;4937853;29;20047;-80
2021/01/09 23:14:09;;;;;;;37.20;13.70;;;;;;;;;;4935750;29;20139;-80
2021/01/09 23:16:36;;;;;;;32.17;13.00;;;;;;;;;;4938126;29;20050;-82
2021/01/09 23:19:06;;;;;;;35.92;13.13;;;1.40;99.90;;;;;;4936517;29;20502;-82
2021/01/09 23:21:36;;;;;;;35.67;13.80;;;1.40;99.90;;;;;;4937263;29;20043;-81
2021/01/09 23:24:03;;;;;;;32.50;14.18;;;;;;;;;;4936086;29;20100;-82
2021/01/09 23:26:30;;;;;;;32.95;13.30;;;1.40;99.90;;;;;;4935849;29;20075;-80
2021/01/09 23:28:56;;;;;;;49.75;16.00;;;;;;;;;;4937169;29;20054;-80
2021/01/09 23:31:23;;;;;;;37.30;15.20;;;1.50;99.90;;;;;;4937291;29;20112;-82
2021/01/09 23:33:49;;;;;;;47.05;18.67;;;;;;;;;;4936200;29;20112;-82
2021/01/09 23:36:15;;;;;;;51.15;18.15;;;;;;;;;;4936301;29;20048;-83
2021/01/09 23:38:42;;;;;;;42.80;16.17;;;;;;;;;;4936895;29;20106;-82
2021/01/09 23:41:08;;;;;;;49.22;18.48;;;;;;;;;;4935980;29;20054;-82
2021/01/09 23:43:36;;;;;;;51.38;19.65;;;;;;;;;;4935844;29;20052;-82
2021/01/09 23:46:02;;;;;;;52.10;18.13;;;;;;;;;;4934529;29;20064;-82
2021/01/09 23:48:28;;;;;;;54.55;18.45;;;;;;;;;;4918702;29;20044;-82
2021/01/09 23:50:55;;;;;;;58.88;20.88;;;;;;;;;;4918469;29;20048;-82
2021/01/09 23:53:23;;;;;;;47.35;17.83;;;1.10;99.90;;;;;;4918206;29;20072;-81
2021/01/09 23:55:50;;;;;;;42.63;16.60;;;;;;;;;;4901157;29;20118;-82
2021/01/09 23:58:17;;;;;;;41.85;17.30;;;;;;;;;;4915993;29;20060;-81
